Time;durP1;ratioP1;P1;durP2;ratioP2;P2;SDS_P1;SDS_P2;PMS_P1;PMS_P2;Temp;Humidity;BMP_temperature;BMP_pressure;BME280_temperature;BME280_humidity;BME280_pressure;Samples;Min_cycle;Max_cycle;Signal;HPM_P1;HPM_P2
2021/06/16 00:01:09;;;;;;;5.90;1.73;;;21.30;62.20;;;;;;5024477;28;20057;-86
2021/06/16 00:03:35;;;;;;;7.57;1.92;;;21.30;62.30;;;;;;5034514;28;20027;-85
2021/06/16 00:06:00;;;;;;;5.15;1.80;;;21.20;62.40;;;;;;5039391;28;20023;-85
2021/06/16 00:08:26;;;;;;;4.80;1.60;;;21.20;62.50;;;;;;5022402;28;20093;-86
2021/06/16 00:10:52;;;;;;;7.28;1.83;;;21.20;62.80;;;;;;5028609;28;20087;-86
2021/06/16 00:13:18;;;;;;;6.47;1.85;;;21.10;63.10;;;;;;5026220;28;20059;-85
2021/06/16 00:15:44;;;;;;;7.20;2.00;;;21.10;63.90;;;;;;5020572;28;20024;-85
2021/06/16 00:18:12;;;;;;;4.88;1.83;;;21.10;63.90;;;;;;5027746;28;20021;-85
2021/06/16 00:20:38;;;;;;;5.30;1.70;;;21.10;63.40;;;;;;5036357;28;20060;-85
2021/06/16 00:23:05;;;;;;;6.13;2.00;;;21.00;63.40;;;;;;5019243;28;20052;-86
2021/06/16 00:25:30;;;;;;;7.20;1.83;;;21.00;63.60;;;;;;5051462;28;20021;-86
2021/06/16 00:27:57;;;;;;;10.98;2.25;;;20.90;63.60;;;;;;5031653;28;20039;-85
2021/06/16 00:30:23;;;;;;;5.80;2.10;;;20.90;63.50;;;;;;5044033;28;20179;-86
2021/06/16 00:32:49;;;;;;;7.05;2.00;;;20.90;63.50;;;;;;5037849;28;20124;-86
2021/06/16 00:35:20;;;;;;;5.07;1.90;;;20.90;63.70;;;;;;5047389;28;20104;-85
2021/06/16 00:37:50;;;;;;;7.97;2.08;;;20.80;63.90;;;;;;5050178;28;20029;-86
2021/06/16 00:40:23;;;;;;;6.28;2.08;;;20.80;64.00;;;;;;5022299;28;20035;-85
2021/06/16 00:42:49;;;;;;;4.30;1.50;;;20.80;64.20;;;;;;5073185;28;20024;-85
2021/06/16 00:45:17;;;;;;;2.75;1.45;;;20.80;64.20;;;;;;5029080;28;20121;-85
2021/06/16 00:47:43;;;;;;;4.50;1.65;;;20.70;64.40;;;;;;5024792;28;20094;-85
2021/06/16 00:50:10;;;;;;;6.35;1.83;;;20.70;64.50;;;;;;5030075;28;20026;-85
2021/06/16 00:52:36;;;;;;;4.60;1.80;;;20.70;64.60;;;;;;5010288;28;20040;-85
2021/06/16 00:55:03;;;;;;;6.28;2.20;;;20.70;64.50;;;;;;5038568;28;20051;-85
2021/06/16 00:57:31;;;;;;;8.20;2.17;;;20.60;65.20;;;;;;5038417;28;20478;-86
2021/06/16 01:00:05;;;;;;;7.28;2.17;;;20.60;64.40;;;;;;5038449;28;20021;-85
2021/06/16 01:02:36;;;;;;;4.97;1.70;;;20.60;64.60;;;;;;5055158;28;20060;-85
2021/06/16 01:05:04;;;;;;;7.75;2.05;;;20.60;65.00;;;;;;5051010;28;20048;-85
2021/06/16 01:07:37;;;;;;;8.23;2.38;;;20.60;65.20;;;;;;5062868;28;20378;-85
2021/06/16 01:10:05;;;;;;;6.75;2.10;;;20.50;65.00;;;;;;5045267;28;20584;-85
2021/06/16 01:12:58;;;;;;;6.35;2.20;;;20.50;64.80;;;;;;5026293;28;20054;-85
2021/06/16 01:15:26;;;;;;;7.03;1.98;;;20.40;64.50;;;;;;5040742;28;20047;-85
2021/06/16 01:18:01;;;;;;;3.85;1.45;;;20.50;64.50;;;;;;5063595;28;20068;-85
2021/06/16 01:20:49;;;;;;;5.55;2.20;;;20.40;64.60;;;;;;5051620;28;20111;-85
2021/06/16 01:23:19;;;;;;;3.75;1.73;;;20.40;64.60;;;;;;5072985;28;20397;-85
2021/06/16 01:26:09;;;;;;;6.75;2.10;;;20.40;64.50;;;;;;5054684;28;20025;-85
2021/06/16 01:28:41;;;;;;;9.70;2.20;;;20.40;64.70;;;;;;5043946;22;20107;-86
2021/06/16 01:31:09;;;;;;;5.72;1.98;;;20.30;64.50;;;;;;5008217;28;20021;-86
2021/06/16 01:33:37;;;;;;;6.53;2.45;;;20.30;64.90;;;;;;5035053;28;20021;-85
2021/06/16 01:36:03;;;;;;;6.82;2.35;;;20.30;64.90;;;;;;5043081;28;20052;-86
2021/06/16 01:38:29;;;;;;;4.22;1.98;;;20.30;65.00;;;;;;5009500;28;20025;-85
2021/06/16 01:40:59;;;;;;;6.82;2.10;;;20.20;65.00;;;;;;4985144;28;20034;-86
2021/06/16 01:43:26;;;;;;;7.60;2.33;;;20.20;65.00;;;;;;5024613;28;20025;-85
2021/06/16 01:45:53;;;;;;;10.80;2.47;;;20.20;65.00;;;;;;5034503;28;20029;-85
2021/06/16 01:48:20;;;;;;;5.53;1.90;;;20.20;65.10;;;;;;5023336;28;20033;-85
2021/06/16 01:50:51;;;;;;;5.75;2.05;;;20.10;65.00;;;;;;4995787;28;20491;-84
2021/06/16 01:53:18;;;;;;;;;;;20.10;65.30;;;;;;5034884;28;20024;-85
2021/06/16 01:55:44;;;;;;;6.72;2.20;;;20.10;66.20;;;;;;5051139;28;20004;-86
2021/06/16 01:58:10;;;;;;;6.05;2.33;;;20.00;65.70;;;;;;5030881;28;20084;-85
2021/06/16 02:00:39;;;;;;;5.00;2.00;;;20.00;66.00;;;;;;4971621;28;20030;-85
2021/06/16 02:03:05;;;;;;;4.15;1.95;;;20.00;65.90;;;;;;5010312;28;20040;-85
2021/06/16 02:05:31;;;;;;;6.10;2.20;;;20.00;66.00;;;;;;5014777;28;20463;-85
2021/06/16 02:08:03;;;;;;;8.98;2.10;;;20.00;66.10;;;;;;5014903;28;20037;-86
2021/06/16 02:10:33;;;;;;;8.18;2.75;;;20.00;66.40;;;;;;5011528;28;20036;-85
2021/06/16 02:13:02;;;;;;;6.53;1.88;;;19.90;66.30;;;;;;5025092;28;20028;-85
2021/06/16 02:15:36;;;;;;;4.45;1.77;;;19.90;66.40;;;;;;5026806;28;20017;-86
2021/06/16 02:18:04;;;;;;;6.97;2.35;;;19.80;66.60;;;;;;5055564;28;20025;-85
2021/06/16 02:20:30;;;;;;;5.22;2.50;;;19.80;66.60;;;;;;5034084;28;20029;-85
2021/06/16 02:22:56;;;;;;;5.45;2.10;;;19.80;66.90;;;;;;5007454;28;20462;-85
2021/06/16 02:25:22;;;;;;;8.75;2.92;;;19.80;67.00;;;;;;5018093;28;20128;-85
2021/06/16 02:27:49;;;;;;;6.85;2.42;;;19.80;67.00;;;;;;5026980;28;20037;-85
2021/06/16 02:30:15;;;;;;;6.88;2.75;;;19.70;66.80;;;;;;5003234;28;20048;-86
2021/06/16 02:32:41;;;;;;;7.38;2.60;;;19.70;66.90;;;;;;5014560;28;20026;-85
2021/06/16 02:35:08;;;;;;;7.15;2.50;;;19.70;67.00;;;;;;4994699;28;20494;-86
2021/06/16 02:37:38;;;;;;;5.60;2.45;;;19.70;67.10;;;;;;5048364;28;20053;-86
2021/06/16 02:40:11;;;;;;;5.70;2.45;;;19.60;67.20;;;;;;5012968;28;20147;-85
2021/06/16 02:42:48;;;;;;;7.93;2.85;;;19.60;67.20;;;;;;5018888;28;20022;-86
2021/06/16 02:45:15;;;;;;;6.88;2.65;;;19.60;67.40;;;;;;5017572;28;20025;-85
2021/06/16 02:47:59;;;;;;;6.30;2.53;;;19.50;67.30;;;;;;5001371;28;20098;-85
2021/06/16 02:50:27;;;;;;;8.02;2.40;;;19.50;67.80;;;;;;5046798;28;20028;-85
2021/06/16 02:52:55;;;;;;;6.43;2.95;;;19.50;67.60;;;;;;5032211;28;20014;-86
2021/06/16 02:55:25;;;;;;;8.07;2.70;;;19.50;67.90;;;;;;5028253;28;20033;-85
2021/06/16 02:57:53;;;;;;;9.52;2.88;;;19.40;67.80;;;;;;5039624;28;20021;-85
2021/06/16 03:00:20;;;;;;;9.10;2.85;;;19.40;67.90;;;;;;5010852;28;20048;-85
2021/06/16 03:02:47;;;;;;;5.78;2.42;;;19.40;68.10;;;;;;5000756;28;20033;-85
2021/06/16 03:05:16;;;;;;;6.72;3.00;;;19.30;67.90;;;;;;5017393;28;20025;-85
2021/06/16 03:07:43;;;;;;;7.05;2.80;;;19.30;68.30;;;;;;5031049;28;20029;-85
2021/06/16 03:10:10;;;;;;;6.97;2.50;;;19.30;68.20;;;;;;5024008;28;20470;-84
2021/06/16 03:12:37;;;;;;;8.80;3.50;;;19.30;68.40;;;;;;5020623;28;20429;-85
2021/06/16 03:15:04;;;;;;;6.47;2.63;;;19.20;68.30;;;;;;5036815;28;20028;-85
2021/06/16 03:17:30;;;;;;;7.40;3.15;;;19.30;68.70;;;;;;4993026;28;20033;-85
2021/06/16 03:19:58;;;;;;;8.48;2.90;;;19.20;68.60;;;;;;5016731;28;20014;-85
2021/06/16 03:22:24;;;;;;;8.50;3.20;;;19.20;68.70;;;;;;5027237;28;20072;-85
2021/06/16 03:24:52;;;;;;;6.93;3.05;;;19.20;68.70;;;;;;5048245;28;20025;-85
2021/06/16 03:27:24;;;;;;;9.25;3.20;;;19.10;68.90;;;;;;5017038;28;20036;-85
2021/06/16 03:29:54;;;;;;;7.57;2.92;;;19.10;68.90;;;;;;5030582;28;20080;-85
2021/06/16 03:32:22;;;;;;;5.93;2.90;;;19.10;68.90;;;;;;5010187;28;20075;-85
2021/06/16 03:34:48;;;;;;;9.95;3.78;;;19.10;68.90;;;;;;5036568;28;20021;-85
2021/06/16 03:37:15;;;;;;;8.88;3.45;;;19.10;69.00;;;;;;5022385;28;20037;-85
2021/06/16 03:39:42;;;;;;;9.20;3.17;;;19.10;69.90;;;;;;5037212;28;20017;-86
2021/06/16 03:42:09;;;;;;;6.95;2.92;;;19.00;69.40;;;;;;5054276;28;20029;-85
2021/06/16 03:44:35;;;;;;;7.97;3.10;;;19.00;69.40;;;;;;5003640;28;20085;-85
2021/06/16 03:47:03;;;;;;;9.10;3.40;;;19.00;69.70;;;;;;5035643;28;20030;-85
2021/06/16 03:49:31;;;;;;;7.40;3.22;;;19.00;69.60;;;;;;5016579;28;20072;-85
2021/06/16 03:51:57;;;;;;;8.82;3.15;;;19.00;69.60;;;;;;5030539;28;20086;-85
2021/06/16 03:54:27;;;;;;;8.75;3.20;;;19.00;69.70;;;;;;4976396;28;20036;-85
2021/06/16 03:56:54;;;;;;;6.72;3.00;;;18.90;69.70;;;;;;5019569;28;20024;-85
2021/06/16 03:59:20;;;;;;;7.07;3.00;;;18.90;69.70;;;;;;5015008;28;20025;-86
2021/06/16 04:01:46;;;;;;;9.35;3.05;;;18.90;69.90;;;;;;5016163;28;20026;-85
2021/06/16 04:04:12;;;;;;;6.50;2.65;;;18.90;69.90;;;;;;5029860;28;20493;-85
2021/06/16 04:06:42;;;;;;;6.93;2.97;;;18.90;69.90;;;;;;5016406;28;20112;-85
2021/06/16 04:09:13;;;;;;;6.53;3.13;;;18.90;70.20;;;;;;5030002;28;20021;-86
2021/06/16 04:11:39;;;;;;;6.13;3.08;;;18.80;70.30;;;;;;5007835;28;20025;-85
2021/06/16 04:14:05;;;;;;;7.32;2.97;;;18.80;70.40;;;;;;5011334;28;20027;-85
2021/06/16 04:16:32;;;;;;;6.93;2.88;;;18.80;70.50;;;;;;5001829;28;20112;-85
2021/06/16 04:18:57;;;;;;;9.55;3.28;;;18.80;70.50;;;;;;5025730;28;20086;-85
2021/06/16 04:21:23;;;;;;;9.20;3.17;;;18.80;70.60;;;;;;5019752;28;20045;-85
2021/06/16 04:24:09;;;;;;;6.25;2.60;;;18.80;70.80;;;;;;5015682;28;20052;-85
2021/06/16 04:26:34;;;;;;;8.18;3.10;;;18.80;71.20;;;;;;5029413;28;20021;-85
2021/06/16 04:29:00;;;;;;;7.47;3.55;;;18.80;70.90;;;;;;5009012;28;20054;-85
2021/06/16 04:31:26;;;;;;;7.97;3.00;;;18.80;71.00;;;;;;5008461;28;20045;-85
2021/06/16 04:33:52;;;;;;;8.65;3.22;;;18.80;71.00;;;;;;5009844;28;20049;-85
2021/06/16 04:36:17;;;;;;;9.13;3.22;;;18.80;71.00;;;;;;4998449;28;20041;-85
2021/06/16 04:38:43;;;;;;;7.15;3.47;;;18.80;71.20;;;;;;5032082;28;20076;-85
2021/06/16 04:41:08;;;;;;;9.02;3.15;;;18.80;71.20;;;;;;4987023;28;20174;-85
2021/06/16 04:43:34;;;;;;;6.85;3.38;;;18.90;71.30;;;;;;4993228;28;20048;-85
2021/06/16 04:46:12;;;;;;;7.32;3.00;;;18.90;71.50;;;;;;4995851;28;20100;-85
2021/06/16 04:48:41;;;;;;;6.28;2.78;;;18.90;71.80;;;;;;4996441;28;20038;-86
2021/06/16 04:51:07;;;;;;;6.03;3.03;;;18.90;71.80;;;;;;5033164;28;20475;-85
2021/06/16 04:53:32;;;;;;;10.35;3.72;;;18.90;71.70;;;;;;5030642;28;20033;-85
2021/06/16 04:55:58;;;;;;;7.53;3.40;;;18.90;72.00;;;;;;5015116;28;20021;-86
2021/06/16 04:58:24;;;;;;;7.75;3.10;;;18.90;71.80;;;;;;4995326;28;20037;-85
2021/06/16 05:00:50;;;;;;;5.43;2.95;;;18.90;71.80;;;;;;5011717;28;20054;-86
2021/06/16 05:03:16;;;;;;;9.75;3.78;;;18.90;71.90;;;;;;4994736;28;20026;-85
2021/06/16 05:05:42;;;;;;;6.28;3.15;;;18.90;71.90;;;;;;4975926;28;20100;-85
2021/06/16 05:08:07;;;;;;;6.63;3.30;;;19.00;72.00;;;;;;5020917;28;20168;-85
2021/06/16 05:10:33;;;;;;;9.35;3.60;;;19.00;72.00;;;;;;5031121;28;20086;-85
2021/06/16 05:12:59;;;;;;;6.20;3.20;;;19.00;72.20;;;;;;4999901;28;20080;-85
2021/06/16 05:15:24;;;;;;;8.48;3.10;;;19.00;72.30;;;;;;5015755;28;20021;-85
2021/06/16 05:17:50;;;;;;;5.95;2.85;;;19.00;72.20;;;;;;5032788;28;20033;-85
2021/06/16 05:20:16;;;;;;;8.45;2.83;;;19.10;72.20;;;;;;5015074;28;20032;-85
2021/06/16 05:22:42;;;;;;;8.93;3.42;;;19.10;72.20;;;;;;5023052;28;20038;-85
2021/06/16 05:25:10;;;;;;;7.15;3.22;;;19.10;72.30;;;;;;4995303;28;20030;-85
2021/06/16 05:27:36;;;;;;;7.57;3.28;;;19.10;72.40;;;;;;5026681;28;20475;-85
2021/06/16 05:30:04;;;;;;;7.93;3.00;;;19.10;72.40;;;;;;4990819;28;20045;-85
2021/06/16 05:32:29;;;;;;;6.57;3.15;;;19.10;72.40;;;;;;5014200;28;20022;-85
2021/06/16 05:34:56;;;;;;;6.50;3.30;;;19.10;72.60;;;;;;5005400;28;20034;-85
2021/06/16 05:37:22;;;;;;;10.95;2.90;;;19.20;72.60;;;;;;5002250;28;20034;-85
2021/06/16 05:39:48;;;;;;;7.97;3.33;;;19.20;72.80;;;;;;5006630;28;20037;-85
2021/06/16 05:42:14;;;;;;;8.30;2.85;;;19.20;72.60;;;;;;5009100;28;20156;-85
2021/06/16 05:44:39;;;;;;;6.30;3.00;;;19.20;72.80;;;;;;5004620;28;20026;-85
2021/06/16 05:47:08;;;;;;;6.25;3.13;;;19.20;72.80;;;;;;4987018;28;20026;-85
2021/06/16 05:49:34;;;;;;;6.30;2.75;;;19.30;73.10;;;;;;5011636;28;20033;-85
2021/06/16 05:51:59;;;;;;;5.80;2.90;;;19.30;72.70;;;;;;5016266;28;20033;-86
2021/06/16 05:54:25;;;;;;;6.85;3.20;;;19.30;72.70;;;;;;5001644;28;20049;-86
2021/06/16 05:56:51;;;;;;;5.97;2.67;;;19.30;72.40;;;;;;4990379;28;20034;-86
2021/06/16 05:59:16;;;;;;;7.25;3.03;;;19.40;72.30;;;;;;4982618;28;20387;-85
2021/06/16 06:01:46;;;;;;;9.23;3.70;;;19.40;72.50;;;;;;5025912;28;20018;-86
2021/06/16 06:04:12;;;;;;;10.65;3.47;;;19.40;72.40;;;;;;5011016;28;20368;-85
2021/06/16 06:06:38;;;;;;;7.20;2.80;;;19.50;72.30;;;;;;5034540;28;20120;-85
2021/06/16 06:09:07;;;;;;;5.40;2.97;;;19.50;72.20;;;;;;5036254;28;20129;-85
2021/06/16 06:11:34;;;;;;;6.43;2.92;;;19.50;72.60;;;;;;5020420;28;20018;-85
2021/06/16 06:14:01;;;;;;;6.65;3.17;;;19.60;72.70;;;;;;5027208;28;20370;-86
2021/06/16 06:16:26;;;;;;;7.97;2.92;;;19.60;72.50;;;;;;5015654;28;20497;-86
2021/06/16 06:18:52;;;;;;;5.45;3.30;;;19.60;72.30;;;;;;5027360;28;20022;-86
2021/06/16 06:21:18;;;;;;;6.35;2.95;;;19.70;72.20;;;;;;5011566;28;20033;-85
2021/06/16 06:23:43;;;;;;;7.10;3.42;;;19.80;72.00;;;;;;5012598;28;20033;-85
2021/06/16 06:26:09;;;;;;;7.03;3.20;;;19.80;72.10;;;;;;4997950;28;20030;-86
2021/06/16 06:28:36;;;;;;;6.85;2.92;;;19.80;71.90;;;;;;4998313;28;20052;-86
2021/06/16 06:31:48;;;;;;;6.47;2.78;;;19.90;72.70;;;;;;5026667;28;20033;-85
2021/06/16 06:34:14;;;;;;;8.82;2.78;;;19.90;72.20;;;;;;5035175;28;20021;-86
2021/06/16 06:36:40;;;;;;;6.82;3.10;;;20.00;72.30;;;;;;5017618;28;20044;-86
2021/06/16 06:39:05;;;;;;;5.95;2.90;;;20.00;72.20;;;;;;5000994;28;20026;-86
2021/06/16 06:41:31;;;;;;;7.40;2.83;;;20.10;72.40;;;;;;5033493;28;20509;-86
2021/06/16 06:43:57;;;;;;;7.72;3.40;;;20.20;72.70;;;;;;5019633;28;20029;-86
2021/06/16 06:46:22;;;;;;;5.88;2.97;;;20.20;72.70;;;;;;5035075;28;20026;-86
2021/06/16 06:48:48;;;;;;;6.38;2.90;;;20.20;72.50;;;;;;5013743;28;20029;-86
2021/06/16 06:51:14;;;;;;;6.72;3.20;;;20.30;72.60;;;;;;4999340;28;20026;-86
2021/06/16 06:53:39;;;;;;;7.60;3.17;;;20.40;72.80;;;;;;5017461;28;20034;-86
2021/06/16 06:56:05;;;;;;;6.38;3.25;;;20.40;72.60;;;;;;5033385;28;20029;-85
2021/06/16 06:58:31;;;;;;;5.45;2.78;;;20.50;72.40;;;;;;5037055;28;20033;-86
2021/06/16 07:00:57;;;;;;;7.15;3.15;;;20.50;72.20;;;;;;5020329;28;20386;-86
2021/06/16 07:03:22;;;;;;;6.20;3.45;;;20.60;72.30;;;;;;5013842;28;20068;-86
2021/06/16 07:05:48;;;;;;;6.00;3.53;;;20.70;72.20;;;;;;4984731;28;20546;-86
2021/06/16 07:08:13;;;;;;;5.63;3.00;;;20.70;71.90;;;;;;5000902;28;20145;-86
2021/06/16 07:10:39;;;;;;;4.63;2.55;;;20.80;71.80;;;;;;4984610;28;20029;-86
2021/06/16 07:13:05;;;;;;;5.53;3.05;;;20.90;71.90;;;;;;5016882;28;20152;-86
2021/06/16 07:15:31;;;;;;;6.15;3.20;;;21.00;71.70;;;;;;5000610;28;20159;-86
2021/06/16 07:17:57;;;;;;;9.32;3.67;;;21.10;71.70;;;;;;5000847;28;20017;-86
2021/06/16 07:20:23;;;;;;;5.30;2.75;;;21.10;71.70;;;;;;5036647;28;20039;-86
2021/06/16 07:22:58;;;;;;;6.47;2.95;;;21.20;71.60;;;;;;5008287;28;20013;-86
2021/06/16 07:25:24;;;;;;;6.07;2.75;;;21.30;71.70;;;;;;5034769;28;20394;-86
2021/06/16 07:27:50;;;;;;;5.45;2.80;;;21.40;71.80;;;;;;5032262;22;20044;-84
2021/06/16 07:30:16;;;;;;;7.68;2.70;;;21.50;71.80;;;;;;5055012;28;20025;-83
2021/06/16 07:32:43;;;;;;;4.35;2.70;;;21.60;71.50;;;;;;5089036;28;20026;-83
2021/06/16 07:35:10;;;;;;;7.55;2.72;;;21.70;71.30;;;;;;5072495;28;20492;-83
2021/06/16 07:37:37;;;;;;;4.72;2.55;;;21.80;71.10;;;;;;5089481;28;20020;-84
2021/06/16 07:40:05;;;;;;;5.20;2.75;;;21.90;70.80;;;;;;5055718;28;20488;-83
2021/06/16 07:42:30;;;;;;;5.70;3.00;;;22.00;70.60;;;;;;5083729;28;20025;-83
2021/06/16 07:44:56;;;;;;;6.28;2.58;;;22.10;70.60;;;;;;5047010;28;20035;-84
2021/06/16 07:47:22;;;;;;;4.63;2.30;;;22.20;70.30;;;;;;5071904;28;20460;-84
2021/06/16 07:49:47;;;;;;;4.47;2.50;;;22.30;69.80;;;;;;5072352;28;20032;-84
2021/06/16 07:52:13;;;;;;;3.05;1.63;;;22.30;69.20;;;;;;5071889;28;20032;-83
2021/06/16 07:54:38;;;;;;;11.73;2.65;;;22.50;69.00;;;;;;5052157;28;20489;-85
2021/06/16 07:57:04;;;;;;;9.50;3.38;;;22.60;68.90;;;;;;5048650;28;20021;-84
2021/06/16 07:59:30;;;;;;;4.63;2.22;;;22.60;67.70;;;;;;5065942;28;20423;-84
2021/06/16 08:01:56;;;;;;;3.95;1.88;;;22.70;67.20;;;;;;5055261;28;20020;-84
2021/06/16 08:04:24;;;;;;;2.83;1.80;;;22.80;66.80;;;;;;5071753;28;20029;-84
2021/06/16 08:06:59;;;;;;;4.40;2.10;;;22.90;66.40;;;;;;5035493;28;20036;-84
2021/06/16 08:09:25;;;;;;;1.85;1.40;;;23.10;66.10;;;;;;5037773;28;20094;-84
2021/06/16 08:11:50;;;;;;;5.70;1.95;;;23.10;65.80;;;;;;5054769;28;20024;-84
2021/06/16 08:14:16;;;;;;;4.88;2.00;;;23.20;65.60;;;;;;5054492;28;20048;-84
2021/06/16 08:16:42;;;;;;;5.03;2.03;;;23.30;65.60;;;;;;5071341;28;20031;-84
2021/06/16 08:19:08;;;;;;;3.85;1.90;;;23.40;65.50;;;;;;5051373;28;20032;-84
2021/06/16 08:21:33;;;;;;;3.53;2.10;;;23.50;65.90;;;;;;5036933;28;20078;-84
2021/06/16 08:23:59;;;;;;;4.22;2.15;;;23.60;65.00;;;;;;5071251;28;20032;-84
2021/06/16 08:26:25;;;;;;;6.25;1.95;;;23.70;64.80;;;;;;5071256;28;20032;-84
2021/06/16 08:28:51;;;;;;;5.20;2.33;;;23.80;64.80;;;;;;5054374;28;20416;-84
2021/06/16 08:31:16;;;;;;;3.78;2.15;;;23.90;64.30;;;;;;5035083;28;20040;-84
2021/06/16 08:33:42;;;;;;;5.47;2.30;;;24.00;64.00;;;;;;5054542;28;20028;-84
2021/06/16 08:36:08;;;;;;;3.75;2.15;;;24.00;63.90;;;;;;5054757;28;20083;-84
2021/06/16 08:38:35;;;;;;;5.15;2.03;;;24.10;64.00;;;;;;5071326;28;20020;-84
2021/06/16 08:41:06;;;;;;;4.13;2.10;;;24.20;64.00;;;;;;5050770;28;20071;-84
2021/06/16 08:43:38;;;;;;;3.45;1.85;;;24.30;64.00;;;;;;5054510;28;20056;-84
2021/06/16 08:46:06;;;;;;;4.15;1.95;;;24.40;63.70;;;;;;5071084;28;20021;-84
2021/06/16 08:48:33;;;;;;;3.33;1.73;;;24.50;63.20;;;;;;5057992;28;20116;-84
2021/06/16 08:50:58;;;;;;;3.35;1.77;;;24.60;63.00;;;;;;5053344;28;20044;-84
2021/06/16 08:53:24;;;;;;;4.63;2.15;;;24.70;62.80;;;;;;5034421;28;20021;-84
2021/06/16 08:55:50;;;;;;;4.05;2.17;;;24.80;62.60;;;;;;5069033;28;20025;-84
2021/06/16 08:58:16;;;;;;;5.53;3.00;;;24.90;62.40;;;;;;5050852;28;20074;-84
2021/06/16 09:00:42;;;;;;;3.53;2.05;;;24.90;62.60;;;;;;5065885;28;20112;-84
2021/06/16 09:03:08;;;;;;;5.43;2.42;;;25.00;61.90;;;;;;5072114;28;20021;-84
2021/06/16 09:05:40;;;;;;;3.45;2.25;;;25.10;61.80;;;;;;5050972;28;20040;-84
2021/06/16 09:08:24;;;;;;;3.58;1.88;;;25.20;61.70;;;;;;5058045;28;20094;-84
2021/06/16 09:10:53;;;;;;;4.28;2.10;;;25.30;61.10;;;;;;5071856;28;20429;-84
2021/06/16 09:13:30;;;;;;;5.63;2.40;;;25.30;60.70;;;;;;5050669;28;20055;-84
2021/06/16 09:15:58;;;;;;;3.88;2.08;;;25.40;60.40;;;;;;5070582;28;20062;-84
2021/06/16 09:18:58;;;;;;;2.95;1.88;;;25.50;60.50;;;;;;5071150;28;20021;-84
2021/06/16 09:21:38;;;;;;;3.58;2.10;;;25.60;60.60;;;;;;5073794;28;20024;-84
2021/06/16 09:24:06;;;;;;;3.63;2.08;;;25.70;60.60;;;;;;5074667;28;20487;-84
2021/06/16 09:26:37;;;;;;;3.28;1.90;;;25.70;60.10;;;;;;5061756;28;20393;-84
2021/06/16 09:29:04;;;;;;;3.55;2.13;;;25.80;60.10;;;;;;5074104;28;20143;-84
2021/06/16 09:31:39;;;;;;;4.35;2.20;;;25.90;59.70;;;;;;5074137;28;20488;-84
2021/06/16 09:34:07;;;;;;;4.18;2.35;;;25.90;59.30;;;;;;5074615;28;20021;-84
2021/06/16 09:36:44;;;;;;;4.68;2.33;;;26.00;58.70;;;;;;5074183;28;20028;-84
2021/06/16 09:39:10;;;;;;;4.72;2.50;;;26.10;58.30;;;;;;5074443;28;20020;-84
2021/06/16 09:41:50;;;;;;;4.25;1.98;;;26.10;58.80;;;;;;5057501;28;20020;-84
2021/06/16 09:44:40;;;;;;;4.03;2.10;;;26.20;58.30;;;;;;5091232;28;20024;-84
2021/06/16 09:47:21;;;;;;;3.85;2.05;;;26.30;57.90;;;;;;5062624;28;20031;-84
2021/06/16 09:49:59;;;;;;;3.60;1.92;;;26.30;57.90;;;;;;5073951;28;20024;-84
2021/06/16 09:52:29;;;;;;;3.83;2.20;;;26.40;58.10;;;;;;5065281;28;20025;-84
2021/06/16 09:54:54;;;;;;;2.75;2.05;;;26.50;58.20;;;;;;5069074;28;20116;-84
2021/06/16 09:57:20;;;;;;;3.10;2.00;;;26.60;58.30;;;;;;5057440;28;20107;-84
2021/06/16 09:59:46;;;;;;;4.75;2.20;;;26.60;58.00;;;;;;5053935;28;20051;-84
2021/06/16 10:02:23;;;;;;;3.13;1.88;;;26.70;58.00;;;;;;5072674;28;20074;-85
2021/06/16 10:04:56;;;;;;;5.10;2.60;;;26.80;57.70;;;;;;5073957;28;20520;-84
2021/06/16 10:07:24;;;;;;;8.75;2.85;;;26.80;57.40;;;;;;5073834;28;20052;-84
2021/06/16 10:09:59;;;;;;;4.03;2.30;;;26.90;57.10;;;;;;5075080;28;20051;-84
2021/06/16 10:12:47;;;;;;;4.03;2.28;;;26.90;56.90;;;;;;5073576;28;20378;-84
2021/06/16 10:15:18;;;;;;;5.20;2.60;;;27.00;57.20;;;;;;5073632;28;20446;-84
2021/06/16 10:17:45;;;;;;;6.45;2.83;;;27.10;56.90;;;;;;5073908;28;20454;-84
2021/06/16 10:20:13;;;;;;;5.28;1.90;;;27.10;56.10;;;;;;5073583;28;20440;-84
2021/06/16 10:22:39;;;;;;;3.75;2.08;;;27.20;56.50;;;;;;5073391;28;20526;-84
2021/06/16 10:25:06;;;;;;;3.78;2.00;;;27.30;56.70;;;;;;5073500;28;20031;-84
2021/06/16 10:27:47;;;;;;;3.75;2.22;;;27.30;56.40;;;;;;5040123;28;20036;-84
2021/06/16 10:30:13;;;;;;;;;;;27.40;56.50;;;;;;5090040;28;20393;-84
2021/06/16 10:32:44;;;;;;;4.32;2.10;;;27.40;55.60;;;;;;5073207;28;19961;-84
2021/06/16 10:35:35;;;;;;;3.20;2.20;;;27.50;56.00;;;;;;5073564;28;20035;-84
2021/06/16 10:38:13;;;;;;;3.55;2.08;;;27.50;55.80;;;;;;5073067;28;20016;-84
2021/06/16 10:40:54;;;;;;;2.95;2.03;;;27.60;55.90;;;;;;5073319;28;20020;-84
2021/06/16 10:43:31;;;;;;;4.18;2.47;;;27.60;56.00;;;;;;5073384;28;20029;-84
2021/06/16 10:46:16;;;;;;;4.82;2.40;;;27.70;56.00;;;;;;5073226;28;20077;-84
2021/06/16 10:48:51;;;;;;;4.70;2.47;;;27.80;55.90;;;;;;5078379;28;20082;-84
2021/06/16 10:51:31;;;;;;;3.80;2.20;;;27.80;55.90;;;;;;5075534;28;20025;-84
2021/06/16 10:54:10;;;;;;;3.17;2.35;;;27.90;55.70;;;;;;5073133;28;20426;-84
2021/06/16 10:56:47;;;;;;;5.25;2.40;;;28.00;55.80;;;;;;5074195;28;20009;-84
2021/06/16 10:59:13;;;;;;;4.80;2.40;;;28.00;54.70;;;;;;5072944;28;20372;-84
2021/06/16 11:01:50;;;;;;;4.82;2.58;;;28.10;54.50;;;;;;5072962;28;20044;-84
2021/06/16 11:04:29;;;;;;;4.90;2.30;;;28.10;54.70;;;;;;5072960;28;20025;-85
2021/06/16 11:06:56;;;;;;;4.32;2.67;;;28.20;55.00;;;;;;5072888;28;20076;-84
2021/06/16 11:09:51;;;;;;;5.22;2.83;;;28.20;54.70;;;;;;5052825;28;20078;-84
2021/06/16 11:12:43;;;;;;;4.15;2.38;;;28.30;54.90;;;;;;5060674;28;20028;-84
2021/06/16 11:15:35;;;;;;;4.28;2.63;;;28.30;54.90;;;;;;5072811;28;20020;-84
2021/06/16 11:18:02;;;;;;;3.60;2.50;;;28.40;54.80;;;;;;5068148;28;20036;-84
2021/06/16 11:20:37;;;;;;;4.00;2.30;;;28.50;55.00;;;;;;5056184;28;20504;-84
2021/06/16 11:23:04;;;;;;;5.43;3.17;;;28.50;55.30;;;;;;5072785;28;20027;-84
2021/06/16 11:25:39;;;;;;;5.03;2.80;;;28.60;54.40;;;;;;5072431;28;20016;-84
2021/06/16 11:28:12;;;;;;;5.68;2.95;;;28.60;53.60;;;;;;5072172;28;20017;-84
2021/06/16 11:30:56;;;;;;;4.90;2.80;;;28.60;54.30;;;;;;5072393;28;20111;-84
2021/06/16 11:33:22;;;;;;;5.00;2.70;;;28.60;55.00;;;;;;5062005;28;20384;-84
2021/06/16 11:35:51;;;;;;;4.50;2.60;;;28.70;54.80;;;;;;5089201;28;20024;-84
2021/06/16 11:38:19;;;;;;;5.30;3.45;;;28.70;54.20;;;;;;5082082;28;20359;-84
2021/06/16 11:40:57;;;;;;;4.32;2.70;;;28.80;53.40;;;;;;5085052;28;20036;-84
2021/06/16 11:43:36;;;;;;;4.57;2.55;;;28.80;53.70;;;;;;5073452;28;20059;-84
2021/06/16 11:46:06;;;;;;;3.83;2.83;;;28.90;53.70;;;;;;5072391;28;20029;-84
2021/06/16 11:48:32;;;;;;;4.40;2.60;;;29.00;53.90;;;;;;5071870;28;20027;-84
2021/06/16 11:50:58;;;;;;;4.20;2.47;;;29.00;54.00;;;;;;5071775;28;20033;-84
2021/06/16 11:53:29;;;;;;;4.15;2.65;;;29.10;54.20;;;;;;5071790;28;20021;-84
2021/06/16 11:55:58;;;;;;;3.63;2.38;;;29.10;53.70;;;;;;5063588;28;20025;-84
2021/06/16 11:58:36;;;;;;;3.95;2.45;;;29.20;53.80;;;;;;5055577;28;20086;-84
2021/06/16 12:01:13;;;;;;;5.55;3.15;;;29.20;53.80;;;;;;5071824;28;20082;-84
2021/06/16 12:03:42;;;;;;;4.97;3.08;;;29.30;52.80;;;;;;5071521;28;20216;-84
2021/06/16 12:06:09;;;;;;;5.57;3.10;;;29.30;53.00;;;;;;5071568;28;20433;-84
2021/06/16 12:08:35;;;;;;;4.13;2.90;;;29.30;52.20;;;;;;5071437;28;20465;-84
2021/06/16 12:11:15;;;;;;;5.25;3.03;;;29.40;52.20;;;;;;5051462;28;20222;-84
2021/06/16 12:14:04;;;;;;;3.97;2.72;;;29.40;52.40;;;;;;5067675;28;20500;-84
2021/06/16 12:16:33;;;;;;;5.07;3.28;;;29.40;52.90;;;;;;5071528;28;20024;-84
2021/06/16 12:19:18;;;;;;;4.78;3.13;;;29.40;52.50;;;;;;5071178;28;20115;-84
2021/06/16 12:22:00;;;;;;;4.78;2.90;;;29.50;53.10;;;;;;5071425;28;20020;-84
2021/06/16 12:24:41;;;;;;;6.63;3.08;;;29.50;53.60;;;;;;5057590;28;20431;-84
2021/06/16 12:27:10;;;;;;;5.95;2.88;;;29.50;53.60;;;;;;5071165;28;20032;-84
2021/06/16 12:29:47;;;;;;;4.63;2.80;;;29.60;53.70;;;;;;5072370;28;20052;-84
2021/06/16 12:32:29;;;;;;;5.15;3.45;;;29.70;53.70;;;;;;5071088;28;20115;-84
2021/06/16 12:35:25;;;;;;;6.97;3.25;;;29.70;52.50;;;;;;5071137;28;20012;-84
2021/06/16 12:37:55;;;;;;;4.90;2.80;;;29.60;51.00;;;;;;5072377;28;20101;-84
2021/06/16 12:40:31;;;;;;;;;;;29.70;52.30;;;;;;5054856;28;20431;-84
2021/06/16 12:42:57;;;;;;;6.50;3.40;;;29.70;52.30;;;;;;5071118;28;20017;-84
2021/06/16 12:45:43;;;;;;;7.43;3.30;;;29.80;52.40;;;;;;5060240;28;20033;-84
2021/06/16 12:48:27;;;;;;;4.38;2.88;;;29.80;52.00;;;;;;5070439;28;20373;-84
2021/06/16 12:50:58;;;;;;;6.35;3.08;;;29.90;52.80;;;;;;5070970;28;20036;-83
2021/06/16 12:53:29;;;;;;;4.55;3.38;;;29.90;52.60;;;;;;5070669;28;20809;-84
2021/06/16 12:55:56;;;;;;;5.15;3.30;;;29.90;51.70;;;;;;5037651;28;20033;-84
2021/06/16 12:58:23;;;;;;;4.70;3.30;;;29.90;52.00;;;;;;5072126;28;20025;-84
2021/06/16 13:00:56;;;;;;;6.15;3.80;;;29.90;52.10;;;;;;5087724;28;20025;-84